createdAt,value
2023-03-05T00:00:08.618Z,101556.59
2023-03-05T00:00:35.011Z,101554.88
2023-03-05T00:00:56.646Z,101555.75
2023-03-05T00:01:20.205Z,101557.47
2023-03-05T00:01:42.955Z,101554.88
2023-03-05T00:02:06.830Z,101549.59
2023-03-05T00:02:28.605Z,101552.25
2023-03-05T00:02:50.285Z,101556.66
2023-03-05T00:03:13.101Z,101549.59
2023-03-05T00:03:34.967Z,101555.75
2023-03-05T00:03:57.000Z,101554.00
2023-03-05T00:04:18.687Z,101547.81
2023-03-05T00:04:41.295Z,101551.34
2023-03-05T00:05:02.866Z,101551.34
2023-03-05T00:05:24.484Z,101544.28
2023-03-05T00:05:46.050Z,101548.69
2023-03-05T00:06:08.221Z,101560.13
2023-03-05T00:06:33.889Z,101554.88
2023-03-05T00:06:55.725Z,101549.63
2023-03-05T00:07:17.325Z,101551.38
2023-03-05T00:07:38.927Z,101551.41
2023-03-05T00:08:00.626Z,101552.28
2023-03-05T00:08:23.148Z,101551.38
2023-03-05T00:08:44.934Z,101547.00
2023-03-05T00:09:06.629Z,101553.13
2023-03-05T00:09:28.212Z,101559.31
2023-03-05T00:09:50.754Z,101556.66
2023-03-05T00:10:12.529Z,101546.13
2023-03-05T00:10:34.118Z,101550.47
2023-03-05T00:10:57.133Z,101559.25
2023-03-05T00:11:20.594Z,101552.22
2023-03-05T00:11:42.304Z,101554.88
2023-03-05T00:12:04.585Z,101561.03
2023-03-05T00:12:26.255Z,101553.06
2023-03-05T00:12:48.856Z,101550.53
2023-03-05T00:13:10.513Z,101552.28
2023-03-05T00:13:33.043Z,101554.00
2023-03-05T00:13:54.959Z,101554.00
2023-03-05T00:14:17.598Z,101555.75
2023-03-05T00:14:39.211Z,101550.47
2023-03-05T00:15:00.898Z,101543.47
2023-03-05T00:15:22.530Z,101557.53
2023-03-05T00:15:44.130Z,101545.25
2023-03-05T00:16:09.313Z,101548.72
2023-03-05T00:16:31.427Z,101551.34
2023-03-05T00:16:53.050Z,101554.88
2023-03-05T00:17:14.698Z,101554.88
2023-03-05T00:17:37.278Z,101552.22
2023-03-05T00:17:59.295Z,101540.75
2023-03-05T00:18:21.649Z,101557.53
2023-03-05T00:18:43.809Z,101546.03
2023-03-05T00:19:06.810Z,101545.13
2023-03-05T00:19:28.422Z,101553.06
2023-03-05T00:19:50.006Z,101552.22
2023-03-05T00:20:13.301Z,101548.69
2023-03-05T00:20:35.266Z,101543.41
2023-03-05T00:20:56.908Z,101546.00
2023-03-05T00:21:20.679Z,101540.81
2023-03-05T00:21:43.865Z,101546.09
2023-03-05T00:22:06.580Z,101550.47
2023-03-05T00:22:28.215Z,101546.13
2023-03-05T00:22:50.011Z,101532.09
2023-03-05T00:23:11.734Z,101550.53
2023-03-05T00:23:34.234Z,101537.38
2023-03-05T00:23:57.803Z,101549.66
2023-03-05T00:24:19.392Z,101537.34
2023-03-05T00:24:42.045Z,101546.13
2023-03-05T00:25:04.653Z,101542.63
2023-03-05T00:25:26.234Z,101547.00
2023-03-05T00:25:48.192Z,101545.25
2023-03-05T00:26:09.994Z,101542.59
2023-03-05T00:26:35.808Z,101547.94
2023-03-05T00:26:57.414Z,101547.00
2023-03-05T00:27:19.028Z,101547.00
2023-03-05T00:27:40.681Z,101549.69
2023-03-05T00:28:03.408Z,101541.75
2023-03-05T00:28:25.059Z,101542.69
2023-03-05T00:28:49.786Z,101543.56
2023-03-05T00:29:15.513Z,101548.81
2023-03-05T00:29:39.272Z,101550.63
2023-03-05T00:30:00.895Z,101545.28
2023-03-05T00:30:22.564Z,101540.03
2023-03-05T00:30:45.126Z,101544.41
2023-03-05T00:31:06.769Z,101545.28
2023-03-05T00:31:31.334Z,101541.75
2023-03-05T00:31:53.043Z,101541.81
2023-03-05T00:32:15.726Z,101543.56
2023-03-05T00:32:37.335Z,101541.81
2023-03-05T00:32:58.994Z,101548.03
2023-03-05T00:33:20.622Z,101545.38
2023-03-05T00:33:42.325Z,101542.69
2023-03-05T00:34:08.010Z,101536.56
2023-03-05T00:34:29.696Z,101540.94
2023-03-05T00:34:51.314Z,101548.00
2023-03-05T00:35:13.179Z,101547.06
2023-03-05T00:35:39.471Z,101551.47
2023-03-05T00:36:07.040Z,101551.47
2023-03-05T00:36:29.626Z,101535.53
2023-03-05T00:36:52.901Z,101548.75
2023-03-05T00:37:14.689Z,101545.22
2023-03-05T00:37:37.641Z,101547.00
2023-03-05T00:37:59.241Z,101540.81
2023-03-05T00:38:20.878Z,101541.69
2023-03-05T00:38:42.469Z,101539.06
2023-03-05T00:39:04.302Z,101542.63
2023-03-05T00:39:27.909Z,101537.34
2023-03-05T00:39:49.501Z,101528.63
2023-03-05T00:40:12.596Z,101538.34
2023-03-05T00:40:38.075Z,101538.31
2023-03-05T00:40:59.750Z,101544.50
2023-03-05T00:41:22.263Z,101537.47
2023-03-05T00:41:45.503Z,101533.03
2023-03-05T00:42:07.799Z,101533.91
2023-03-05T00:42:29.833Z,101532.19
2023-03-05T00:42:51.584Z,101534.81
2023-03-05T00:43:14.126Z,101531.28
2023-03-05T00:43:35.786Z,101535.72
2023-03-05T00:43:57.681Z,101536.63
2023-03-05T00:44:19.590Z,101530.44
2023-03-05T00:44:42.256Z,101536.56
2023-03-05T00:45:04.520Z,101537.41
2023-03-05T00:45:26.233Z,101534.75
2023-03-05T00:45:47.819Z,101534.75
2023-03-05T00:46:09.678Z,101534.75
2023-03-05T00:46:32.387Z,101537.41
2023-03-05T00:46:54.130Z,101530.34
2023-03-05T00:47:18.245Z,101532.97
2023-03-05T00:47:39.901Z,101535.56
2023-03-05T00:48:02.558Z,101532.16
2023-03-05T00:48:25.526Z,101534.75
2023-03-05T00:48:47.316Z,101535.69
2023-03-05T00:49:10.016Z,101535.63
2023-03-05T00:49:31.596Z,101529.47
2023-03-05T00:49:53.190Z,101535.63
2023-03-05T00:50:14.858Z,101532.16
2023-03-05T00:50:37.366Z,101529.50
2023-03-05T00:50:59.103Z,101535.63
2023-03-05T00:51:20.786Z,101537.41
2023-03-05T00:51:42.448Z,101525.09
2023-03-05T00:52:06.412Z,101525.97
2023-03-05T00:52:28.055Z,101532.09
2023-03-05T00:52:49.657Z,101525.94
2023-03-05T00:53:11.390Z,101533.91
2023-03-05T00:53:33.086Z,101538.38
2023-03-05T00:53:56.187Z,101530.44
2023-03-05T00:54:17.939Z,101526.88
2023-03-05T00:54:39.540Z,101532.16
2023-03-05T00:55:01.161Z,101526.84
2023-03-05T00:55:23.705Z,101530.38
2023-03-05T00:55:45.484Z,101535.69
2023-03-05T00:56:07.470Z,101531.28
2023-03-05T00:56:29.169Z,101529.56
2023-03-05T00:56:51.817Z,101529.56
2023-03-05T00:57:13.406Z,101538.38
2023-03-05T00:57:34.987Z,101526.03
2023-03-05T00:57:56.547Z,101523.38
2023-03-05T00:58:19.170Z,101523.38
2023-03-05T00:58:40.881Z,101515.44
2023-03-05T00:59:02.562Z,101514.56
2023-03-05T00:59:25.171Z,101521.66
2023-03-05T00:59:47.005Z,101522.56
2023-03-05T01:00:10.765Z,101519.91
2023-03-05T01:00:32.397Z,101516.38
2023-03-05T01:00:57.898Z,101513.72
2023-03-05T01:01:20.579Z,101513.69
2023-03-05T01:01:42.241Z,101524.25
2023-03-05T01:02:03.957Z,101517.19
2023-03-05T01:02:26.030Z,101517.19
2023-03-05T01:02:47.646Z,101509.25
2023-03-05T01:03:10.579Z,101516.31
2023-03-05T01:03:34.768Z,101524.25
2023-03-05T01:03:57.419Z,101515.41
2023-03-05T01:04:19.159Z,101504.06
2023-03-05T01:04:40.820Z,101512.75
2023-03-05T01:05:03.536Z,101517.16
2023-03-05T01:05:25.263Z,101518.94
2023-03-05T01:05:47.513Z,101517.19
2023-03-05T01:06:11.556Z,101492.59
2023-03-05T01:06:34.149Z,101513.66
2023-03-05T01:06:56.204Z,101513.63
2023-03-05T01:07:19.214Z,101515.38
2023-03-05T01:07:41.067Z,101518.03
2023-03-05T01:08:04.205Z,101505.72
2023-03-05T01:08:26.183Z,101512.75
2023-03-05T01:08:48.210Z,101513.63
2023-03-05T01:09:09.917Z,101510.97
2023-03-05T01:09:32.545Z,101512.75
2023-03-05T01:09:54.349Z,101510.09
2023-03-05T01:10:16.104Z,101512.75
2023-03-05T01:10:37.883Z,101507.44
2023-03-05T01:11:00.571Z,101496.97
2023-03-05T01:11:22.274Z,101509.22
2023-03-05T01:11:43.925Z,101509.25
2023-03-05T01:12:06.154Z,101506.63
2023-03-05T01:12:27.745Z,101509.28
2023-03-05T01:12:50.959Z,101505.78
2023-03-05T01:13:12.579Z,101511.06
2023-03-05T01:13:34.306Z,101508.44
2023-03-05T01:13:56.012Z,101508.44
2023-03-05T01:14:19.305Z,101517.25
2023-03-05T01:14:40.966Z,101507.53
2023-03-05T01:15:02.777Z,101510.19
2023-03-05T01:15:25.368Z,101510.19
2023-03-05T01:15:47.722Z,101511.06
2023-03-05T01:16:10.516Z,101498.78
2023-03-05T01:16:32.252Z,101511.09
2023-03-05T01:16:54.331Z,101499.59
2023-03-05T01:17:15.896Z,101506.66
2023-03-05T01:17:37.571Z,101510.16
2023-03-05T01:18:00.151Z,101509.31
2023-03-05T01:18:21.740Z,101507.56
2023-03-05T01:18:43.397Z,101504.03
2023-03-05T01:19:06.002Z,101515.44
2023-03-05T01:19:27.851Z,101502.22
2023-03-05T01:19:49.564Z,101509.28
2023-03-05T01:20:13.345Z,101492.59
2023-03-05T01:20:36.106Z,101513.66
2023-03-05T01:20:57.685Z,101509.25
2023-03-05T01:21:19.381Z,101509.31
2023-03-05T01:21:41.842Z,101507.59
2023-03-05T01:22:04.541Z,101505.84
2023-03-05T01:22:27.552Z,101507.56
2023-03-05T01:22:49.542Z,101509.28
2023-03-05T01:23:11.542Z,101510.16
2023-03-05T01:23:35.671Z,101510.16
2023-03-05T01:23:58.799Z,101509.28
2023-03-05T01:24:20.468Z,101496.91
2023-03-05T01:24:42.041Z,101505.72
2023-03-05T01:25:04.016Z,101496.91
2023-03-05T01:25:25.907Z,101504.84
2023-03-05T01:25:55.338Z,101500.44
2023-03-05T01:26:17.206Z,101496.97
2023-03-05T01:26:39.410Z,101502.19
2023-03-05T01:27:01.127Z,101503.09
2023-03-05T01:27:24.156Z,101497.78
2023-03-05T01:27:46.186Z,101499.56
2023-03-05T01:28:08.060Z,101495.09
2023-03-05T01:28:29.712Z,101496.03
2023-03-05T01:28:52.325Z,101488.06
2023-03-05T01:29:13.920Z,101486.25
2023-03-05T01:29:37.127Z,101488.06
2023-03-05T01:29:58.727Z,101487.16
2023-03-05T01:30:20.446Z,101491.56
2023-03-05T01:30:43.074Z,101490.72
2023-03-05T01:31:07.929Z,101480.13
2023-03-05T01:31:29.838Z,101488.91
2023-03-05T01:31:51.459Z,101485.38
2023-03-05T01:32:14.484Z,101488.03
2023-03-05T01:32:36.624Z,101485.38
2023-03-05T01:32:58.342Z,101488.03
2023-03-05T01:33:20.411Z,101480.09
2023-03-05T01:33:43.065Z,101486.28
2023-03-05T01:34:04.809Z,101480.13
2023-03-05T01:34:26.390Z,101480.13
2023-03-05T01:34:48.030Z,101481.03
2023-03-05T01:35:16.649Z,101475.72
2023-03-05T01:35:39.334Z,101467.84
2023-03-05T01:36:00.978Z,101480.09
2023-03-05T01:36:24.987Z,101483.63
2023-03-05T01:36:46.711Z,101480.13
2023-03-05T01:37:09.494Z,101485.38
2023-03-05T01:37:32.696Z,101478.34
2023-03-05T01:37:54.337Z,101453.84
2023-03-05T01:38:16.664Z,101478.31
2023-03-05T01:39:08.450Z,101478.38
2023-03-05T01:39:30.069Z,101479.25
2023-03-05T01:39:51.845Z,101476.63
2023-03-05T01:40:17.059Z,101483.69
2023-03-05T01:40:40.094Z,101475.75
2023-03-05T01:41:01.883Z,101470.50
2023-03-05T01:41:23.462Z,101476.66
2023-03-05T01:41:46.009Z,101473.13
2023-03-05T01:42:07.804Z,101481.97
2023-03-05T01:42:29.401Z,101476.72
2023-03-05T01:42:58.062Z,101469.66
2023-03-05T01:43:25.406Z,101469.66
2023-03-05T01:43:47.677Z,101470.53
2023-03-05T01:44:21.410Z,101476.72
2023-03-05T01:45:03.165Z,101471.41
2023-03-05T01:45:24.903Z,101468.78
2023-03-05T01:46:28.181Z,101467.00
2023-03-05T01:46:50.856Z,101475.91
2023-03-05T01:47:12.456Z,101472.41
2023-03-05T01:47:34.044Z,101469.84
2023-03-05T01:47:55.683Z,101471.59
2023-03-05T01:48:18.330Z,101468.94
2023-03-05T01:48:42.089Z,101475.13
2023-03-05T01:49:14.556Z,101464.53
2023-03-05T01:49:41.012Z,101469.78
2023-03-05T01:50:04.444Z,101471.59
2023-03-05T01:50:27.672Z,101472.47
2023-03-05T01:50:49.394Z,101473.44
2023-03-05T01:51:11.460Z,101476.06
2023-03-05T01:51:38.217Z,101469.00
2023-03-05T01:52:06.485Z,101470.75
2023-03-05T01:52:32.154Z,101471.59
2023-03-05T01:52:59.049Z,101468.94
2023-03-05T01:53:20.649Z,101468.06
2023-03-05T01:53:42.635Z,101471.59
2023-03-05T01:54:08.051Z,101470.72
2023-03-05T01:54:33.663Z,101465.44
2023-03-05T01:54:59.644Z,101469.84
2023-03-05T01:55:24.472Z,101471.63
2023-03-05T01:55:46.435Z,101460.13
2023-03-05T01:56:09.226Z,101466.31
2023-03-05T01:56:31.023Z,101469.94
2023-03-05T01:56:55.041Z,101467.25
2023-03-05T01:57:20.562Z,101466.41
2023-03-05T01:57:44.891Z,101463.72
2023-03-05T01:58:10.126Z,101469.88
2023-03-05T01:58:32.043Z,101465.44
2023-03-05T01:59:03.045Z,101461.06
2023-03-05T01:59:26.822Z,101458.41
2023-03-05T01:59:51.125Z,101447.88
2023-03-05T02:00:17.751Z,101462.78
2023-03-05T02:00:43.653Z,101458.38
2023-03-05T02:01:05.640Z,101462.72
2023-03-05T02:01:27.432Z,101453.03
2023-03-05T02:01:52.854Z,101453.03
2023-03-05T02:02:14.438Z,101455.66
2023-03-05T02:02:36.182Z,101453.91
2023-03-05T02:03:01.751Z,101451.25
2023-03-05T02:03:25.447Z,101454.72
2023-03-05T02:03:49.376Z,101456.53
2023-03-05T02:04:16.264Z,101460.03
2023-03-05T02:04:43.115Z,101451.25
2023-03-05T02:05:09.281Z,101449.50
2023-03-05T02:05:33.215Z,101442.53
2023-03-05T02:05:55.254Z,101449.50
2023-03-05T02:06:17.238Z,101459.19
2023-03-05T02:06:41.065Z,101456.50
2023-03-05T02:07:04.358Z,101452.06
2023-03-05T02:07:26.486Z,101443.25
2023-03-05T02:07:48.320Z,101449.38
2023-03-05T02:08:14.270Z,101453.78
2023-03-05T02:08:36.910Z,101448.59
2023-03-05T02:08:59.991Z,101451.19
2023-03-05T02:09:23.493Z,101449.44
2023-03-05T02:09:45.285Z,101451.19
2023-03-05T02:10:16.962Z,101450.38
2023-03-05T02:10:40.192Z,101445.91
2023-03-05T02:11:02.315Z,101448.56
2023-03-05T02:11:24.237Z,101440.66
2023-03-05T02:11:47.819Z,101451.25
2023-03-05T02:12:11.595Z,101445.97
2023-03-05T02:12:33.180Z,101446.78
2023-03-05T02:12:58.613Z,101436.25
2023-03-05T02:13:23.756Z,101445.91
2023-03-05T02:13:45.786Z,101444.19
2023-03-05T02:14:10.272Z,101445.91
2023-03-05T02:14:32.835Z,101443.25
2023-03-05T02:14:59.286Z,101441.50
2023-03-05T02:15:21.093Z,101447.72
2023-03-05T02:15:42.995Z,101444.16
2023-03-05T02:16:05.345Z,101450.31
2023-03-05T02:16:35.729Z,101436.19
2023-03-05T02:16:58.076Z,101439.72
2023-03-05T02:17:19.716Z,101438.84
2023-03-05T02:17:41.274Z,101437.06
2023-03-05T02:18:03.929Z,101442.38
2023-03-05T02:18:25.876Z,101444.09
2023-03-05T02:18:47.556Z,101435.31
2023-03-05T02:19:11.477Z,101431.84
2023-03-05T02:19:48.234Z,101437.19
2023-03-05T02:20:13.340Z,101435.44
2023-03-05T02:20:45.142Z,101439.84
2023-03-05T02:21:09.642Z,101434.59
2023-03-05T02:21:37.507Z,101425.78
2023-03-05T02:21:59.143Z,101436.31
2023-03-05T02:22:22.862Z,101433.66
2023-03-05T02:22:45.480Z,101434.59
2023-03-05T02:23:07.085Z,101435.44
2023-03-05T02:23:32.729Z,101435.44
2023-03-05T02:23:54.469Z,101432.78
2023-03-05T02:24:20.633Z,101431.91
2023-03-05T02:24:42.226Z,101432.78
2023-03-05T02:25:13.728Z,101434.56
2023-03-05T02:25:35.444Z,101438.09
2023-03-05T02:25:58.270Z,101433.66
2023-03-05T02:26:19.943Z,101440.78
2023-03-05T02:26:43.078Z,101426.66
2023-03-05T02:27:05.752Z,101430.16
2023-03-05T02:27:34.967Z,101430.25
2023-03-05T02:28:01.799Z,101432.00
2023-03-05T02:28:28.226Z,101432.06
2023-03-05T02:28:54.425Z,101433.84
2023-03-05T02:29:20.861Z,101430.41
2023-03-05T02:29:45.398Z,101430.34
2023-03-05T02:30:08.600Z,101422.47
2023-03-05T02:30:31.278Z,101434.72
2023-03-05T02:30:53.881Z,101429.47
2023-03-05T02:31:18.458Z,101422.38
2023-03-05T02:31:40.233Z,101418.84
2023-03-05T02:32:02.695Z,101428.47
2023-03-05T02:32:25.307Z,101427.63
2023-03-05T02:32:47.195Z,101428.47
2023-03-05T02:33:09.777Z,101421.41
2023-03-05T02:33:31.504Z,101421.44
2023-03-05T02:33:56.220Z,101423.13
2023-03-05T02:34:18.954Z,101425.78
2023-03-05T02:34:40.993Z,101423.13
2023-03-05T02:35:04.313Z,101416.97
2023-03-05T02:35:26.161Z,101417.78
2023-03-05T02:35:48.109Z,101419.56
2023-03-05T02:36:12.055Z,101416.91
2023-03-05T02:36:33.836Z,101415.16
2023-03-05T02:36:56.810Z,101418.72
2023-03-05T02:37:19.755Z,101416.06
2023-03-05T02:37:41.741Z,101412.53
2023-03-05T02:38:03.579Z,101415.19
2023-03-05T02:38:26.200Z,101411.66
2023-03-05T02:38:48.299Z,101411.66
2023-03-05T02:39:10.233Z,101407.25
2023-03-05T02:39:32.174Z,101416.91
2023-03-05T02:39:53.978Z,101416.97
2023-03-05T02:40:17.712Z,101416.03
2023-03-05T02:40:39.704Z,101418.72
2023-03-05T02:41:01.408Z,101412.56
2023-03-05T02:41:24.043Z,101415.19
2023-03-05T02:41:45.831Z,101408.16
2023-03-05T02:42:08.516Z,101415.19
2023-03-05T02:42:33.505Z,101416.97
2023-03-05T02:42:55.750Z,101415.25
2023-03-05T02:43:17.386Z,101413.44
2023-03-05T02:43:40.099Z,101416.09
2023-03-05T02:44:01.956Z,101414.38
2023-03-05T02:44:23.661Z,101412.59
2023-03-05T02:44:45.313Z,101414.31
2023-03-05T02:45:08.301Z,101414.31
2023-03-05T02:45:30.969Z,101410.84
2023-03-05T02:45:52.774Z,101413.44
2023-03-05T02:46:15.699Z,101406.38
2023-03-05T02:46:37.663Z,101407.25
2023-03-05T02:47:01.193Z,101418.72
2023-03-05T02:47:22.956Z,101414.31
2023-03-05T02:47:44.671Z,101408.13
2023-03-05T02:48:06.906Z,101409.06
2023-03-05T02:48:29.692Z,101405.56
2023-03-05T02:48:51.428Z,101379.28
2023-03-05T02:49:13.100Z,101414.38
2023-03-05T02:49:34.766Z,101389.78
2023-03-05T02:49:57.567Z,101410.84
2023-03-05T02:50:20.142Z,101412.59
2023-03-05T02:50:42.239Z,101411.69
2023-03-05T02:51:06.801Z,101405.50
2023-03-05T02:51:30.776Z,101409.97
2023-03-05T02:51:53.407Z,101408.19
2023-03-05T02:52:15.039Z,101408.16
2023-03-05T02:52:36.759Z,101400.25
2023-03-05T02:53:00.429Z,101406.38
2023-03-05T02:53:24.034Z,101401.09
2023-03-05T02:53:46.218Z,101399.38
2023-03-05T02:54:08.243Z,101401.97
2023-03-05T02:54:31.233Z,101402.00
2023-03-05T02:54:53.005Z,101397.56
2023-03-05T02:55:14.805Z,101382.72
2023-03-05T02:55:37.058Z,101402.91
2023-03-05T02:56:00.304Z,101398.50
2023-03-05T02:56:23.004Z,101398.50
2023-03-05T02:56:44.649Z,101401.16
2023-03-05T02:57:06.347Z,101402.03
2023-03-05T02:57:27.958Z,101402.91
2023-03-05T02:57:51.286Z,101391.50
2023-03-05T02:58:12.951Z,101392.38
2023-03-05T02:58:34.582Z,101401.19
2023-03-05T02:58:56.274Z,101403.78
2023-03-05T02:59:18.924Z,101399.38
2023-03-05T02:59:40.710Z,101394.97
2023-03-05T03:00:03.130Z,101401.13
2023-03-05T03:00:25.008Z,101398.50
2023-03-05T03:00:46.652Z,101399.38
2023-03-05T03:01:09.722Z,101397.56
2023-03-05T03:01:31.407Z,101401.09
2023-03-05T03:01:53.104Z,101394.91
2023-03-05T03:02:14.863Z,101403.75
2023-03-05T03:02:37.444Z,101398.44
2023-03-05T03:02:59.682Z,101394.91
2023-03-05T03:03:22.240Z,101389.69
2023-03-05T03:03:43.878Z,101397.56
2023-03-05T03:04:06.697Z,101395.78
2023-03-05T03:04:28.273Z,101396.66
2023-03-05T03:04:49.869Z,101395.78
2023-03-05T03:05:11.454Z,101402.84
2023-03-05T03:05:33.046Z,101403.75
2023-03-05T03:05:55.565Z,101389.72
2023-03-05T03:06:17.229Z,101397.59
2023-03-05T03:06:40.136Z,101397.63
2023-03-05T03:07:01.821Z,101393.19
2023-03-05T03:07:24.360Z,101390.59
2023-03-05T03:07:46.155Z,101402.91
2023-03-05T03:08:07.865Z,101391.44
2023-03-05T03:08:29.648Z,101402.03
2023-03-05T03:08:52.288Z,101396.72
2023-03-05T03:09:13.921Z,101400.25
2023-03-05T03:09:35.896Z,101398.50
2023-03-05T03:09:57.476Z,101393.25
2023-03-05T03:10:19.066Z,101396.78
2023-03-05T03:10:41.997Z,101396.78
2023-03-05T03:11:05.676Z,101393.31
2023-03-05T03:11:27.404Z,101395.06
2023-03-05T03:11:48.992Z,101392.44
2023-03-05T03:12:12.611Z,101395.91
2023-03-05T03:12:37.161Z,101395.03
2023-03-05T03:12:58.736Z,101386.22
2023-03-05T03:13:20.287Z,101394.19
2023-03-05T03:13:44.129Z,101404.72
2023-03-05T03:14:05.666Z,101387.13
2023-03-05T03:14:27.330Z,101390.66
2023-03-05T03:14:48.993Z,101395.03
2023-03-05T03:15:12.785Z,101394.16
2023-03-05T03:15:35.345Z,101392.38
2023-03-05T03:16:02.413Z,101391.50
2023-03-05T03:16:24.028Z,101388.84
2023-03-05T03:16:46.628Z,101388.78
2023-03-05T03:17:09.447Z,101388.03
2023-03-05T03:17:31.131Z,101392.38
2023-03-05T03:17:52.745Z,101391.50
2023-03-05T03:18:15.365Z,101389.75
2023-03-05T03:18:37.050Z,101390.63
2023-03-05T03:18:58.664Z,101393.25
2023-03-05T03:19:20.402Z,101381.81
2023-03-05T03:19:44.161Z,101383.56
2023-03-05T03:20:08.205Z,101383.56
2023-03-05T03:20:29.840Z,101389.72
2023-03-05T03:20:51.429Z,101395.00
2023-03-05T03:21:19.145Z,101386.19
2023-03-05T03:21:42.107Z,101387.97
2023-03-05T03:22:04.378Z,101385.31
2023-03-05T03:22:26.046Z,101385.28
2023-03-05T03:22:49.014Z,101385.28
2023-03-05T03:23:10.598Z,101389.69
2023-03-05T03:23:32.901Z,101389.69
2023-03-05T03:23:54.492Z,101382.63
2023-03-05T03:24:17.227Z,101387.91
2023-03-05T03:24:39.975Z,101383.50
2023-03-05T03:25:02.287Z,101386.16
2023-03-05T03:25:24.066Z,101388.78
2023-03-05T03:25:47.218Z,101388.81
2023-03-05T03:26:09.849Z,101373.09
2023-03-05T03:26:31.884Z,101377.38
2023-03-05T03:26:53.437Z,101366.88
2023-03-05T03:27:15.088Z,101379.16
2023-03-05T03:27:36.743Z,101378.28
2023-03-05T03:27:59.466Z,101373.03
2023-03-05T03:28:21.037Z,101380.03
2023-03-05T03:28:43.059Z,101376.50
2023-03-05T03:29:04.665Z,101383.50
2023-03-05T03:29:27.417Z,101384.44
2023-03-05T03:29:49.138Z,101374.75
2023-03-05T03:30:11.976Z,101374.75
2023-03-05T03:30:33.609Z,101380.03
2023-03-05T03:30:56.238Z,101379.16
2023-03-05T03:31:17.929Z,101374.75
2023-03-05T03:31:41.246Z,101373.03
2023-03-05T03:32:04.630Z,101372.09
2023-03-05T03:32:26.389Z,101378.28
2023-03-05T03:32:48.043Z,101380.91
2023-03-05T03:33:10.013Z,101378.31
2023-03-05T03:33:32.001Z,101373.03
2023-03-05T03:33:54.983Z,101375.69
2023-03-05T03:34:17.528Z,101370.34
2023-03-05T03:34:39.220Z,101376.50
2023-03-05T03:35:01.547Z,101368.56
2023-03-05T03:35:24.130Z,101374.75
2023-03-05T03:35:46.102Z,101363.31
2023-03-05T03:36:08.641Z,101362.34
2023-03-05T03:36:30.492Z,101365.81
2023-03-05T03:36:54.784Z,101350.16
2023-03-05T03:37:16.596Z,101368.50
2023-03-05T03:37:38.514Z,101367.63
2023-03-05T03:38:00.092Z,101370.28
2023-03-05T03:38:22.715Z,101372.03
2023-03-05T03:38:44.316Z,101370.22
2023-03-05T03:39:05.967Z,101363.22
2023-03-05T03:39:27.625Z,101366.69
2023-03-05T03:39:49.430Z,101366.75
2023-03-05T03:40:12.957Z,101367.63
2023-03-05T03:40:35.784Z,101363.22
2023-03-05T03:40:57.372Z,101362.41
2023-03-05T03:41:19.383Z,101364.97
2023-03-05T03:41:43.597Z,101365.00
2023-03-05T03:42:05.502Z,101368.53
2023-03-05T03:42:27.226Z,101368.50
2023-03-05T03:42:50.897Z,101372.03
2023-03-05T03:43:13.490Z,101362.34
2023-03-05T03:43:35.457Z,101364.09
2023-03-05T03:43:56.986Z,101366.75
2023-03-05T03:44:20.641Z,101361.47
2023-03-05T03:44:43.210Z,101365.88
2023-03-05T03:45:05.847Z,101364.97
2023-03-05T03:45:27.564Z,101364.97
2023-03-05T03:45:49.171Z,101365.88
2023-03-05T03:46:11.885Z,101343.03
2023-03-05T03:46:33.532Z,101364.97
2023-03-05T03:46:55.174Z,101363.22
2023-03-05T03:47:17.207Z,101362.34
2023-03-05T03:47:38.780Z,101363.22
2023-03-05T03:48:01.327Z,101357.91
2023-03-05T03:48:23.003Z,101365.00
2023-03-05T03:48:44.638Z,101363.22
2023-03-05T03:49:08.213Z,101332.56
2023-03-05T03:49:30.781Z,101360.56
2023-03-05T03:49:54.054Z,101364.09
2023-03-05T03:50:15.769Z,101358.81
2023-03-05T03:50:38.838Z,101366.75
2023-03-05T03:51:04.732Z,101360.56
2023-03-05T03:51:27.447Z,101360.56
2023-03-05T03:51:50.385Z,101357.03
2023-03-05T03:52:13.341Z,101358.78
2023-03-05T03:52:34.979Z,101359.69
2023-03-05T03:52:56.646Z,101354.41
2023-03-05T03:53:19.275Z,101356.13
2023-03-05T03:53:40.898Z,101361.41
2023-03-05T03:54:02.832Z,101356.97
2023-03-05T03:54:24.778Z,101356.94
2023-03-05T03:54:47.356Z,101358.69
2023-03-05T03:55:10.344Z,101357.88
2023-03-05T03:55:31.961Z,101353.44
2023-03-05T03:55:59.196Z,101361.38
2023-03-05T03:56:20.798Z,101354.34
2023-03-05T03:56:42.819Z,101350.81
2023-03-05T03:57:04.659Z,101351.75
2023-03-05T03:57:26.316Z,101348.22
2023-03-05T03:57:48.874Z,101349.97
2023-03-05T03:58:10.706Z,101356.16
2023-03-05T03:58:32.453Z,101353.50
2023-03-05T03:58:54.548Z,101354.41
2023-03-05T03:59:17.244Z,101345.56
2023-03-05T03:59:38.828Z,101354.41
2023-03-05T04:00:01.015Z,101351.75
2023-03-05T04:00:23.045Z,101345.63
2023-03-05T04:00:44.614Z,101350.88
2023-03-05T04:01:06.239Z,101351.75
2023-03-05T04:01:28.790Z,101345.59
2023-03-05T04:01:50.590Z,101350.03
2023-03-05T04:02:12.220Z,101351.75
2023-03-05T04:02:33.898Z,101351.75
2023-03-05T04:02:56.491Z,101341.16
2023-03-05T04:03:18.146Z,101348.22
2023-03-05T04:03:39.703Z,101346.47
2023-03-05T04:04:01.534Z,101343.81
2023-03-05T04:04:23.397Z,101341.16
2023-03-05T04:04:46.025Z,101350.00
2023-03-05T04:05:08.836Z,101342.03
2023-03-05T04:05:30.680Z,101347.34
2023-03-05T04:05:52.316Z,101342.91
2023-03-05T04:06:15.231Z,101342.03
2023-03-05T04:06:36.840Z,101337.63
2023-03-05T04:06:59.314Z,101335.03
2023-03-05T04:07:22.303Z,101340.28
2023-03-05T04:07:45.315Z,101338.53
2023-03-05T04:08:11.904Z,101335.88
2023-03-05T04:08:33.482Z,101327.06
2023-03-05T04:08:56.113Z,101336.72
2023-03-05T04:09:17.785Z,101330.53
2023-03-05T04:09:39.421Z,101332.31
2023-03-05T04:10:00.965Z,101329.69
2023-03-05T04:10:23.554Z,101316.66
2023-03-05T04:10:45.373Z,101337.66
2023-03-05T04:11:07.060Z,101325.28
2023-03-05T04:11:28.655Z,101329.69
2023-03-05T04:11:50.241Z,101313.97
2023-03-05T04:12:17.866Z,101329.69
2023-03-05T04:12:39.571Z,101327.06
2023-03-05T04:13:01.199Z,101321.75
2023-03-05T04:13:24.867Z,101325.28
2023-03-05T04:13:47.539Z,101331.47
2023-03-05T04:14:09.214Z,101329.69
2023-03-05T04:14:30.800Z,101326.19
2023-03-05T04:14:52.898Z,101324.41
2023-03-05T04:15:15.512Z,101330.56
2023-03-05T04:15:37.150Z,101325.28
2023-03-05T04:15:59.013Z,101329.69
2023-03-05T04:16:20.741Z,101327.06
2023-03-05T04:16:42.440Z,101327.06
2023-03-05T04:17:05.070Z,101323.53
2023-03-05T04:17:26.723Z,101334.13
2023-03-05T04:17:48.356Z,101335.88
2023-03-05T04:18:11.106Z,101325.34
2023-03-05T04:18:34.011Z,101328.00
2023-03-05T04:18:55.709Z,101323.66
2023-03-05T04:19:17.490Z,101331.53
2023-03-05T04:19:39.491Z,101323.59
2023-03-05T04:20:02.390Z,101332.41
2023-03-05T04:20:24.130Z,101320.91